Latest Weather Observations for Lochington

IDQ60801

Issued at 3:32 pm EST Sunday 22 January 2017 (issued every 30 minutes, with the page automatically refreshed every 10 minutes)

About weather observations | Map of weather stations | Latest weather observations for QLD | Other Formats
Station Details ID: 035139 Name: LOCHINGTON Lat: -23.94 Lon: 147.53 Height: 267.19 m
Data from the previous 72 hours. | See also: Recent months at Lochington
Date/Time
EST
Temp
°C
App
Temp
°C
Dew
Point
°C
Rel
Hum
%
Delta-T
°C
Wind Press
QNH
hPa
Press
MSL
hPa
Rain since
9am
mm
Dir  Spd
km/h
Gust
km/h
Spd
kts
Gust
kts
22/03:30pm 33.6 35.4 20.4 46 8.9 SSE 11 20 6 11 1009.7 1007.8 0.0
22/03:00pm 32.6 35.3 20.2 48 8.3 S 6 9 3 5 1010.0 1008.1 0.0
22/02:30pm 31.8 33.9 19.4 47 8.2 S 7 13 4 7 1010.4 1008.6 0.0
22/02:00pm 31.4 32.2 19.1 48 8.1 SE 13 19 7 10 1010.7 1008.9 0.0
22/01:30pm 31.9 33.3 21.1 52 7.3 SE 15 22 8 12 1010.9 1009.1 0.0
22/01:00pm 31.3 33.3 21.5 56 6.7 SE 13 19 7 10 1011.2 1009.4 0.0
22/12:30pm 32.9 34.6 19.4 45 9.0 E 9 15 5 8 1011.3 1009.5 0.0
22/12:00pm 32.7 34.3 19.2 44 8.9 E 9 15 5 8 1011.6 1009.8 0.0
22/11:30am 33.0 35.1 20.2 47 8.6 ENE 9 17 5 9 1011.8 1010.0 0.0
22/11:00am 32.1 34.2 19.4 47 8.4 ENE 7 13 4 7 1012.0 1010.2 0.0
22/10:30am 31.3 32.9 19.9 50 7.6 ENE 11 19 6 10 1012.3 1010.4 0.0
22/10:00am 30.8 31.4 19.5 51 7.5 ENE 15 22 8 12 1012.4 1010.5 0.0
22/09:30am 30.6 32.8 21.1 57 6.4 ENE 11 17 6 9 1012.4 1010.5 0.0
22/09:00am 30.3 33.6 21.9 60 5.7 E 7 13 4 7 1012.3 1010.4 1.8
22/08:30am 29.3 34.5 22.8 68 4.5 CALM 0 4 0 2 1012.0 1010.2 1.8
22/08:00am 28.1 33.8 23.7 77 3.1 CALM 0 2 0 1 1011.8 1010.0 1.8
22/07:30am 26.9 31.8 23.6 82 2.3 SSW 4 6 2 3 1011.6 1009.8 1.8
22/07:00am 25.8 30.7 23.7 88 1.5 SSW 4 7 2 4 1011.4 1009.6 1.8
22/06:30am 25.4 31.0 23.6 90 1.2 CALM 0 0 0 0 1011.1 1009.3 1.8
22/06:00am 25.1 30.5 23.3 90 1.2 CALM 0 0 0 0 1010.7 1008.9 1.8
22/05:30am 25.1 30.5 23.2 89 1.3 CALM 0 0 0 0 1010.2 1008.3 1.8
22/05:00am 25.2 29.9 23.3 89 1.3 W 4 6 2 3 1009.8 1007.9 1.8
22/04:30am 25.0 29.1 22.9 88 1.4 W 6 7 3 4 1009.6 1007.7 1.8
22/04:00am 24.8 29.1 22.7 88 1.4 W 4 6 2 3 1009.2 1007.3 1.8
22/03:30am 24.7 28.8 22.2 86 1.7 WSW 4 6 2 3 1009.0 1007.1 1.8
22/03:00am 24.8 27.9 22.1 85 1.8 W 9 13 5 7 1009.3 1007.4 1.8
22/02:30am 24.8 28.7 23.0 90 1.2 WNW 7 9 4 5 1009.3 1007.4 1.8
22/02:00am 24.8 29.5 22.7 88 1.4 WSW 2 4 1 2 1009.4 1007.5 1.8
22/01:30am 24.9 28.2 22.6 87 1.6 SW 9 17 5 9 1009.7 1007.8 1.8
22/01:00am 24.8 27.9 22.1 85 1.8 SSW 9 15 5 8 1010.0 1008.1 1.6
22/12:30am 27.4 31.7 21.9 72 3.7 SSW 2 6 1 3 1009.9 1008.0 0.0
22/12:00am 27.8 31.3 21.8 70 4.1 SW 6 11 3 6 1009.7 1007.8 0.0
 
Date/Time
EST
Temp
°C
App
Temp
°C
Dew
Point
°C
Rel
Hum
%
Delta-T
°C
Wind Press
QNH
hPa
Press
MSL
hPa
Rain since
9am
mm
Dir  Spd
km/h
Gust
km/h
Spd
kts
Gust
kts
21/11:30pm 28.0 30.8 21.5 67 4.4 SSW 9 15 5 8 1009.8 1007.9 0.0
21/11:00pm 28.1 31.3 21.6 68 4.4 SSW 7 15 4 8 1009.9 1008.0 0.0
21/10:30pm 28.1 31.3 21.6 68 4.4 SSW 7 13 4 7 1009.8 1007.9 0.0
21/10:00pm 28.4 30.7 21.4 66 4.7 SW 11 19 6 10 1009.7 1007.8 0.0
21/09:30pm 28.5 31.6 21.5 66 4.7 SW 7 13 4 7 1009.5 1007.6 0.0
21/09:00pm 28.9 31.2 21.4 64 5.1 SSW 11 15 6 8 1009.2 1007.3 0.0
21/08:30pm 29.4 32.3 21.1 61 5.6 S 7 11 4 6 1009.1 1007.2 0.0
21/08:00pm 29.6 32.1 21.0 60 5.8 S 9 17 5 9 1008.8 1006.9 0.0
21/07:30pm 30.6 31.2 20.2 53 6.9 SSW 17 28 9 15 1008.2 1006.4 0.0
21/07:00pm 32.4 33.5 19.6 46 8.5 SSW 13 20 7 11 1007.7 1005.9 0.0
21/06:30pm 34.7 37.6 19.9 42 9.9 SW 4 6 2 3 1006.6 1004.7 0.0
21/06:00pm 35.8 38.8 19.3 38 11.1 WSW 2 4 1 2 1006.2 1004.3 0.0
21/05:30pm 37.4 40.3 19.8 35 11.9 W 4 7 2 4 1006.0 1004.1 0.0
21/05:00pm 36.5 38.6 19.0 35 11.7 NNW 6 9 3 5 1005.4 1003.5 0.0
21/04:30pm 36.5 39.4 18.1 33 12.1 CALM 0 6 0 3 1005.5 1003.6 0.0
21/04:00pm 36.8 38.8 18.8 34 12.0 NW 6 11 3 6 1005.5 1003.6 0.0
21/03:30pm 37.6 40.6 20.0 36 11.9 NNW 4 13 2 7 1005.8 1003.9 0.0
21/03:00pm 37.0 38.5 19.0 34 12.0 W 9 17 5 9 1006.4 1004.5 0.0
21/02:30pm 36.8 38.7 19.7 36 11.5 W 9 13 5 7 1006.9 1005.1 0.0
21/02:00pm 36.6 37.8 19.1 35 11.7 WNW 11 20 6 11 1007.3 1005.5 0.0
21/01:30pm 36.2 39.2 20.8 40 10.5 W 6 11 3 6 1007.8 1006.0 0.0
21/01:00pm 35.6 37.6 19.1 38 11.0 WSW 7 15 4 8 1008.1 1006.3 0.0
21/12:30pm 35.3 36.8 18.0 36 11.4 WNW 7 17 4 9 1008.5 1006.6 0.0
21/12:00pm 34.6 37.3 19.4 40 10.2 NW 4 7 2 4 1009.0 1007.1 0.0
21/11:30am 33.9 35.2 17.2 37 10.8 NNE 6 9 3 5 1009.3 1007.4 0.0
21/11:00am 33.0 36.1 18.7 42 9.4 CALM 0 2 0 1 1009.8 1007.9 0.0
21/10:30am 31.7 34.1 17.9 43 8.9 SSW 2 6 1 3 1010.0 1008.1 0.0
21/10:00am 31.6 32.9 15.1 36 10.3 E 2 7 1 4 1010.0 1008.1 0.0
21/09:30am 31.2 32.5 17.1 42 9.0 ESE 6 9 3 5 1010.1 1008.2 0.0
21/09:00am 29.9 31.2 17.0 45 8.2 E 6 7 3 4 1010.2 1008.3 0.0
21/08:30am 29.0 29.9 16.5 46 7.9 E 7 11 4 6 1010.0 1008.1 0.0
21/08:00am 27.7 28.9 16.0 49 7.3 E 4 7 2 4 1010.1 1008.2 0.0
21/07:30am 26.4 28.1 17.2 57 5.8 SE 4 6 2 3 1010.0 1008.1 0.0
21/07:00am 25.8 29.1 19.0 66 4.4 CALM 0 0 0 0 1009.7 1007.8 0.0
21/06:30am 25.3 27.6 17.7 62 4.8 NNE 2 4 1 2 1009.4 1007.5 0.0
21/06:00am 25.0 27.6 17.5 63 4.7 CALM 0 0 0 0 1009.4 1007.5 0.0
21/05:30am 25.2 26.1 16.1 57 5.6 ESE 6 6 3 3 1008.8 1006.9 0.0
21/05:00am 25.0 26.6 17.0 61 5.0 ESE 4 4 2 2 1008.2 1006.4 0.0
21/04:30am 25.4 26.5 15.7 55 6.0 ESE 4 7 2 4 1007.9 1006.1 0.0
21/04:00am 25.0 26.6 17.0 61 5.0 SSE 4 6 2 3 1007.6 1005.8 0.0
21/03:30am 24.4 25.5 16.6 61 4.8 SE 6 7 3 4 1007.2 1005.4 0.0
21/03:00am 24.9 25.9 16.9 61 5.0 E 7 9 4 5 1007.0 1005.2 0.0
21/02:30am 25.1 26.5 17.3 62 4.9 E 6 6 3 3 1007.2 1005.4 0.0
21/02:00am 25.2 26.5 16.1 57 5.6 ESE 4 6 2 3 1007.2 1005.4 0.0
21/01:30am 25.3 26.0 15.6 55 5.9 ESE 6 6 3 3 1007.3 1005.5 0.0
21/01:00am 27.1 26.8 14.5 46 7.7 NNE 9 13 5 7 1007.4 1005.6 0.0
21/12:30am 27.4 28.0 16.7 52 6.7 NNE 9 11 5 6 1007.4 1005.6 0.0
21/12:00am 27.3 28.8 18.0 56 6.0 NE 7 9 4 5 1007.7 1005.9 0.0
 
Date/Time
EST
Temp
°C
App
Temp
°C
Dew
Point
°C
Rel
Hum
%
Delta-T
°C
Wind Press
QNH
hPa
Press
MSL
hPa
Rain since
9am
mm
Dir  Spd
km/h
Gust
km/h
Spd
kts
Gust
kts
20/11:30pm 27.5 28.7 18.2 57 6.0 NE 9 13 5 7 1007.6 1005.8 0.0
20/11:00pm 27.8 29.9 18.2 56 6.2 E 4 6 2 3 1007.5 1005.7 0.0
20/10:30pm 27.7 30.1 18.7 58 5.8 WNW 4 7 2 4 1007.7 1005.9 0.0
20/10:00pm 28.0 29.7 18.1 55 6.4 NW 6 6 3 3 1007.6 1005.8 0.0
20/09:30pm 28.7 30.0 17.2 49 7.3 NNW 6 6 3 3 1007.5 1005.7 0.0
20/09:00pm 30.1 31.1 16.9 45 8.4 N 7 9 4 5 1007.2 1005.4 0.0
20/08:30pm 30.5 31.4 16.5 43 8.9 NNE 7 9 4 5 1007.2 1005.4 0.0
20/08:00pm 31.4 32.3 16.6 41 9.4 NNE 7 9 4 5 1006.9 1005.1 0.0
20/07:30pm 31.7 33.9 16.4 39 9.7 CALM 0 0 0 0 1006.8 1004.9 0.0
20/07:00pm 33.0 34.8 15.5 35 11.0 CALM 0 4 0 2 1006.6 1004.7 0.0
20/06:30pm 34.8 35.6 14.7 30 12.6 N 4 7 2 4 1006.2 1004.3 0.0
20/06:00pm 35.7 36.1 12.6 25 14.1 NW 2 6 1 3 1005.7 1003.8 0.0
20/05:30pm 36.1 36.3 14.1 26 13.7 N 6 9 3 5 1005.4 1003.5 0.0
20/05:00pm 36.5 37.0 13.9 26 14.1 NW 4 9 2 5 1005.3 1003.4 0.0
20/04:30pm 36.6 36.9 14.6 27 13.8 NW 6 9 3 5 1005.3 1003.4 0.0
20/04:00pm 36.8 37.3 14.1 25 14.2 WNW 4 9 2 5 1005.4 1003.5 0.0
20/03:30pm 36.1 35.7 12.3 24 14.5 W 6 11 3 6 1005.8 1003.9 0.0
20/03:00pm 36.4 36.5 14.4 27 13.8 NW 7 28 4 15 1006.5 1004.6 0.0
20/02:30pm 36.6 35.8 15.1 27 13.6 NW 13 22 7 12 1006.9 1005.1 0.0
20/02:00pm 35.5 34.4 13.1 26 13.8 NNW 11 17 6 9 1007.5 1005.7 0.0
20/01:30pm 35.6 35.3 14.3 28 13.3 WNW 9 15 5 8 1008.0 1006.2 0.0
20/01:00pm 35.1 33.9 13.9 28 13.2 NW 13 19 7 10 1008.7 1006.8 0.0
20/12:30pm 34.4 34.1 14.3 30 12.5 N 9 17 5 9 1009.1 1007.2 0.0
20/12:00pm 33.9 33.8 13.9 30 12.4 NW 7 13 4 7 1009.5 1007.6 0.0
20/11:30am 33.6 33.6 15.1 33 11.6 N 9 13 5 7 1009.8 1007.9 0.0
20/11:00am 33.1 33.7 16.9 38 10.4 NNW 9 15 5 8 1010.3 1008.5 0.0
20/10:30am 32.0 32.8 16.3 39 10.0 NNE 7 15 4 8 1010.6 1008.8 0.0
20/10:00am 31.5 32.5 16.3 40 9.6 N 6 15 3 8 1010.7 1008.9 0.0
20/09:30am 30.5 31.6 17.2 44 8.5 NNW 7 11 4 6 1010.7 1008.9 0.0
20/09:00am 29.9 31.0 17.0 45 8.2 N 7 13 4 7 1010.8 1009.0 0.0
20/08:30am 28.9 30.1 17.4 49 7.3 N 7 13 4 7 1010.8 1009.0 0.0
20/08:00am 28.0 28.5 17.5 52 6.7 NNE 11 15 6 8 1010.8 1009.0 0.0
20/07:30am 26.7 26.7 17.2 56 6.0 NNE 13 22 7 12 1010.4 1008.6 0.0
20/07:00am 25.2 26.4 18.2 65 4.5 NE 9 15 5 8 1010.3 1008.5 0.0
20/06:30am 23.9 24.7 17.4 67 4.1 NE 9 13 5 7 1010.1 1008.2 0.0
20/06:00am 23.2 23.6 17.2 69 3.7 ENE 11 15 6 8 1009.6 1007.7 0.0
20/05:30am 22.7 23.0 16.9 70 3.6 E 11 13 6 7 1009.1 1007.2 0.0
20/05:00am 24.0 24.1 16.5 63 4.7 ENE 11 13 6 7 1008.2 1006.4 0.0
20/04:30am 24.9 24.8 16.9 61 5.0 ENE 13 20 7 11 1007.8 1006.0 0.0
20/04:00am 25.1 27.4 19.5 71 3.6 ENE 6 13 3 7 1007.1 1005.3 0.0
20/03:30am 25.0 27.8 19.6 72 3.5 NE 4 7 2 4 1007.0 1005.2 0.0
20/03:00am 25.0 28.0 20.0 74 3.3 NE 4 9 2 5 1007.1 1005.3 0.0
20/02:30am 24.1 27.5 20.2 79 2.6 E 2 4 1 2 1007.5 1005.7 0.0
20/02:00am 24.7 28.3 19.8 74 3.2 CALM 0 0 0 0 1007.4 1005.6 0.0
20/01:30am 24.8 27.5 20.3 76 3.0 WNW 6 7 3 4 1007.6 1005.8 0.0
20/01:00am 25.9 29.6 20.0 70 3.9 CALM 0 0 0 0 1007.8 1006.0 0.0
20/12:30am 26.2 29.8 19.8 68 4.2 CALM 0 4 0 2 1007.9 1006.1 0.0
20/12:00am 27.0 30.7 19.9 65 4.7 CALM 0 0 0 0 1007.9 1006.1 0.0
 
Date/Time
EST
Temp
°C
App
Temp
°C
Dew
Point
°C
Rel
Hum
%
Delta-T
°C
Wind Press
QNH
hPa
Press
MSL
hPa
Rain since
9am
mm
Dir  Spd
km/h
Gust
km/h
Spd
kts
Gust
kts
19/11:30pm 26.7 30.7 20.5 69 4.1 CALM 0 2 0 1 1008.0 1006.2 0.0
19/11:00pm 27.4 30.9 19.5 62 5.2 CALM 0 4 0 2 1008.0 1006.2 0.0
19/10:30pm 27.7 30.9 19.8 62 5.2 NW 2 6 1 3 1008.0 1006.2 0.0
19/10:00pm 28.8 30.5 19.4 56 6.2 N 9 11 5 6 1007.9 1006.1 0.0
19/09:30pm 29.4 31.0 19.1 54 6.7 NNE 9 15 5 8 1007.8 1006.0 0.0
19/09:00pm 29.5 33.8 21.2 61 5.6 CALM 0 0 0 0 1007.4 1005.6 0.0
19/08:30pm 29.1 33.1 20.5 59 5.7 CALM 0 0 0 0 1007.2 1005.4 0.0
19/08:00pm 30.2 33.9 19.9 54 6.9 CALM 0 0 0 0 1007.0 1005.2 0.0
19/07:30pm 31.2 33.8 17.5 44 8.8 CALM 0 0 0 0 1006.7 1004.8 0.0
19/07:00pm 32.5 35.6 18.7 44 9.1 CALM 0 0 0 0 1006.5 1004.6 0.0
19/06:30pm 33.9 36.4 17.2 37 10.8 CALM 0 0 0 0 1006.4 1004.5 0.0
19/06:00pm 34.7 37.3 17.4 35 11.3 CALM 0 0 0 0 1006.3 1004.4 0.0
19/05:30pm 35.0 36.4 16.3 32 12.0 N 4 7 2 4 1006.3 1004.4 0.0
19/05:00pm 35.3 36.2 16.1 32 12.3 NNE 6 11 3 6 1006.3 1004.4 0.0
19/04:30pm 36.0 36.6 15.7 30 12.9 N 7 13 4 7 1006.4 1004.5 0.0
19/04:00pm 36.3 36.2 14.9 28 13.5 NE 9 15 5 8 1006.4 1004.5 0.0

Other Formats:

Comma delimited format used in spreadsheet applications
http://www.bom.gov.au/fwo/IDQ60801/IDQ60801.94399.axf

JavaScript Object Notation format (JSON) in row-major order
http://www.bom.gov.au/fwo/IDQ60801/IDQ60801.94399.json